createdAt,value
2023-03-11T00:04:18.753Z,7.39
2023-03-11T00:09:23.548Z,7.01
2023-03-11T00:14:26.917Z,5.93
2023-03-11T00:19:30.295Z,6.48
2023-03-11T00:24:35.396Z,7.07
2023-03-11T00:29:38.827Z,6.97
2023-03-11T00:34:43.792Z,6.53
2023-03-11T00:39:48.579Z,6.96
2023-03-11T00:44:52.013Z,7.23
2023-03-11T00:49:55.433Z,7.71
2023-03-11T00:55:00.822Z,6.99
2023-03-11T01:00:06.732Z,6.74
2023-03-11T01:05:10.825Z,7.46
2023-03-11T01:10:16.561Z,7.91
2023-03-11T01:15:21.964Z,6.85
2023-03-11T01:20:25.432Z,7.48
2023-03-11T01:25:30.524Z,7.40
2023-03-11T01:30:34.878Z,6.25
2023-03-11T01:35:40.063Z,6.82
2023-03-11T01:40:46.819Z,5.10
2023-03-11T01:46:12.577Z,7.17
2023-03-11T01:51:19.010Z,6.93
2023-03-11T01:56:24.435Z,7.35
2023-03-11T02:01:28.070Z,7.85
2023-03-11T02:06:33.310Z,5.92
2023-03-11T02:11:38.243Z,7.81
2023-03-11T02:16:42.044Z,6.59
2023-03-11T02:21:45.536Z,6.80
2023-03-11T02:26:55.333Z,7.22
2023-03-11T02:32:00.125Z,7.41
2023-03-11T02:37:05.394Z,7.42
2023-03-11T02:42:14.451Z,8.02
2023-03-11T02:47:19.021Z,7.56
2023-03-11T02:52:23.303Z,7.71
2023-03-11T02:57:28.253Z,7.73
2023-03-11T03:02:31.813Z,7.31
2023-03-11T03:07:35.696Z,7.40
2023-03-11T03:12:40.524Z,7.39
2023-03-11T03:17:44.054Z,7.12
2023-03-11T03:22:47.485Z,7.84
2023-03-11T03:27:55.235Z,6.83
2023-03-11T03:32:59.724Z,7.11
2023-03-11T03:38:04.273Z,6.86
2023-03-11T03:43:10.025Z,7.62
2023-03-11T03:48:14.664Z,7.38
2023-03-11T03:53:21.841Z,6.84
2023-03-11T03:58:27.137Z,7.30
2023-03-11T04:03:30.982Z,7.42
2023-03-11T04:08:41.387Z,7.52
2023-03-11T04:13:47.791Z,6.75
2023-03-11T04:18:52.012Z,6.90
2023-03-11T04:23:56.519Z,6.48
2023-03-11T04:29:06.734Z,6.23
2023-03-11T04:34:16.216Z,7.16
2023-03-11T04:39:20.048Z,7.65
2023-03-11T04:44:25.499Z,7.53
2023-03-11T04:49:29.128Z,7.35
2023-03-11T04:54:32.849Z,7.21
2023-03-11T04:59:38.340Z,7.15
2023-03-11T05:04:42.007Z,7.45
2023-03-11T05:09:45.600Z,7.33
2023-03-11T05:14:50.915Z,7.06
2023-03-11T05:19:54.851Z,7.36
2023-03-11T05:25:02.131Z,7.06
2023-03-11T05:30:09.262Z,7.17
2023-03-11T05:35:14.508Z,7.08
2023-03-11T05:40:19.131Z,7.16
2023-03-11T05:45:25.648Z,7.20
2023-03-11T05:50:30.889Z,7.64
2023-03-11T05:55:34.518Z,7.73
2023-03-11T06:00:39.520Z,7.26
2023-03-11T06:05:46.207Z,7.43
2023-03-11T06:10:49.764Z,7.44
2023-03-11T06:15:56.903Z,7.72
2023-03-11T06:21:02.562Z,7.41
2023-03-11T06:26:08.537Z,7.77
2023-03-11T06:31:19.387Z,7.83
2023-03-11T06:36:24.789Z,7.51
2023-03-11T06:41:28.347Z,7.15
2023-03-11T06:46:34.212Z,7.71
2023-03-11T06:51:37.797Z,6.50
2023-03-11T06:56:41.769Z,7.69
2023-03-11T07:01:47.632Z,7.80
2023-03-11T07:06:51.289Z,6.74
2023-03-11T07:11:58.023Z,8.59
2023-03-11T07:17:08.608Z,8.10
2023-03-11T07:22:19.020Z,8.26
2023-03-11T07:27:22.460Z,8.56
2023-03-11T07:32:27.289Z,8.74
2023-03-11T07:37:30.733Z,8.14
2023-03-11T07:42:34.849Z,9.09
2023-03-11T07:47:39.755Z,9.21
2023-03-11T07:52:43.210Z,8.48
2023-03-11T07:57:48.203Z,8.68
2023-03-11T08:02:53.072Z,9.46
2023-03-11T08:07:56.518Z,8.89
2023-03-11T08:13:00.022Z,9.48
2023-03-11T08:18:11.098Z,8.96
2023-03-11T08:23:17.562Z,8.38
2023-03-11T08:28:20.972Z,8.91
2023-03-11T08:33:25.979Z,8.14
2023-03-11T08:38:29.514Z,8.66
2023-03-11T08:43:33.041Z,10.25
2023-03-11T08:48:38.781Z,10.48
2023-03-11T08:53:42.354Z,10.70
2023-03-11T08:58:45.792Z,11.21
2023-03-11T09:03:50.654Z,10.07
2023-03-11T09:08:54.203Z,10.78
2023-03-11T09:13:57.666Z,11.58
2023-03-11T09:19:06.829Z,12.31
2023-03-11T09:24:10.299Z,11.37
2023-03-11T09:29:13.711Z,11.76
2023-03-11T09:34:18.557Z,11.73
2023-03-11T09:39:22.019Z,12.91
2023-03-11T09:44:30.057Z,12.23
2023-03-11T09:49:44.368Z,10.50
2023-03-11T09:54:49.570Z,11.66
2023-03-11T09:59:52.989Z,12.25
2023-03-11T10:05:00.305Z,13.08
2023-03-11T10:10:04.127Z,11.55
2023-03-11T10:15:22.001Z,12.58
2023-03-11T10:20:30.800Z,12.35
2023-03-11T10:25:47.317Z,11.95
2023-03-11T10:30:53.639Z,12.82
2023-03-11T10:36:00.046Z,12.79
2023-03-11T10:41:08.311Z,13.31
2023-03-11T10:46:24.606Z,12.85
2023-03-11T10:51:34.920Z,11.85
2023-03-11T10:56:40.120Z,12.35
2023-03-11T11:01:55.231Z,12.06
2023-03-11T11:07:00.598Z,11.51
2023-03-11T11:12:06.685Z,12.44
2023-03-11T11:17:18.175Z,12.41
2023-03-11T11:22:23.775Z,13.03
2023-03-11T11:27:29.136Z,12.50
2023-03-11T11:32:32.523Z,13.48
2023-03-11T11:37:38.971Z,12.79
2023-03-11T11:42:44.737Z,12.74
2023-03-11T11:47:49.875Z,12.83
2023-03-11T11:52:57.401Z,12.99
2023-03-11T11:58:00.783Z,11.83
2023-03-11T12:03:21.683Z,12.98
2023-03-11T12:08:34.429Z,13.09
2023-03-11T12:13:50.774Z,13.23
2023-03-11T12:18:57.169Z,13.27
2023-03-11T12:24:10.490Z,12.45
2023-03-11T12:29:19.880Z,13.47
2023-03-11T12:34:24.706Z,12.72
2023-03-11T12:39:31.202Z,12.15
2023-03-11T12:44:34.662Z,13.23
2023-03-11T12:49:38.809Z,13.27
2023-03-11T12:54:45.090Z,12.57
2023-03-11T13:00:12.414Z,13.27
2023-03-11T13:05:23.008Z,13.41
2023-03-11T13:10:41.432Z,12.49
2023-03-11T13:15:44.987Z,13.49
2023-03-11T13:20:56.024Z,13.26
2023-03-11T13:26:19.927Z,12.70
2023-03-11T13:31:38.704Z,12.96
2023-03-11T13:37:05.677Z,12.16
2023-03-11T13:42:21.405Z,11.66
2023-03-11T13:47:26.210Z,13.06
2023-03-11T13:52:32.887Z,13.24
2023-03-11T13:57:38.612Z,13.11
2023-03-11T14:02:46.536Z,13.72
2023-03-11T14:07:49.987Z,12.46
2023-03-11T14:13:06.525Z,12.49
2023-03-11T14:18:32.385Z,11.78
2023-03-11T14:23:37.832Z,12.99
2023-03-11T14:28:45.337Z,13.18
2023-03-11T14:33:56.369Z,13.43
2023-03-11T14:38:59.928Z,12.85
2023-03-11T14:44:05.177Z,11.94
2023-03-11T14:49:09.677Z,11.41
2023-03-11T14:54:19.009Z,11.30
2023-03-11T14:59:26.753Z,12.12
2023-03-11T15:04:32.833Z,11.54
2023-03-11T15:09:40.734Z,12.39
2023-03-11T15:14:52.213Z,12.59
2023-03-11T15:19:55.880Z,12.59
2023-03-11T15:25:00.825Z,12.00
2023-03-11T15:30:17.861Z,12.43
2023-03-11T15:35:22.438Z,11.00
2023-03-11T15:40:42.482Z,11.23
2023-03-11T15:45:49.953Z,11.39
2023-03-11T15:50:55.180Z,11.66
2023-03-11T15:56:07.034Z,12.09
2023-03-11T16:01:12.557Z,12.54
2023-03-11T16:06:16.059Z,12.19
2023-03-11T16:11:19.760Z,11.19
2023-03-11T16:16:24.754Z,11.10
2023-03-11T16:21:33.322Z,11.10
2023-03-11T16:26:36.901Z,10.87
2023-03-11T16:31:41.794Z,10.85
2023-03-11T16:36:45.180Z,10.55
2023-03-11T16:41:48.511Z,10.59
2023-03-11T16:46:53.409Z,10.07
2023-03-11T16:51:56.868Z,10.81
2023-03-11T16:57:00.188Z,10.35
2023-03-11T17:02:05.015Z,10.78
2023-03-11T17:07:09.118Z,10.51
2023-03-11T17:12:15.623Z,10.43
2023-03-11T17:17:20.770Z,10.33
2023-03-11T17:22:24.234Z,9.96
2023-03-11T17:27:32.051Z,10.25
2023-03-11T17:32:36.924Z,9.80
2023-03-11T17:37:40.252Z,9.89
2023-03-11T17:42:43.644Z,10.00
2023-03-11T17:47:48.387Z,9.68
2023-03-11T17:52:51.832Z,9.50
2023-03-11T17:57:55.296Z,9.25
2023-03-11T18:02:59.975Z,9.21
2023-03-11T18:08:03.416Z,9.31
2023-03-11T18:13:06.780Z,9.09
2023-03-11T18:18:11.678Z,9.35
2023-03-11T18:23:15.130Z,9.39
2023-03-11T18:28:18.712Z,9.23
2023-03-11T18:33:24.210Z,8.83
2023-03-11T18:38:27.927Z,9.18
2023-03-11T18:43:31.343Z,9.36
2023-03-11T18:48:36.137Z,9.26
2023-03-11T18:53:42.397Z,8.79
2023-03-11T18:58:46.368Z,8.76
2023-03-11T19:03:53.060Z,8.82
2023-03-11T19:08:57.726Z,8.67
2023-03-11T19:14:01.107Z,8.64
2023-03-11T19:19:05.933Z,8.66
2023-03-11T19:24:09.340Z,8.92
2023-03-11T19:29:13.487Z,8.67
2023-03-11T19:34:18.202Z,8.40
2023-03-11T19:39:21.602Z,8.53
2023-03-11T19:44:24.964Z,8.32
2023-03-11T19:49:29.776Z,8.43
2023-03-11T19:54:33.196Z,8.39
2023-03-11T19:59:36.882Z,8.14
2023-03-11T20:04:43.210Z,7.81
2023-03-11T20:09:46.836Z,8.18
2023-03-11T20:14:50.203Z,8.10
2023-03-11T20:19:55.080Z,8.27
2023-03-11T20:24:58.669Z,8.19
2023-03-11T20:30:02.205Z,8.16
2023-03-11T20:35:08.115Z,7.70
2023-03-11T20:40:14.226Z,7.68
2023-03-11T20:45:21.482Z,7.80
2023-03-11T20:50:26.379Z,7.88
2023-03-11T20:55:29.842Z,7.91
2023-03-11T21:00:33.266Z,8.30
2023-03-11T21:05:38.534Z,8.43
2023-03-11T21:10:42.060Z,8.32
2023-03-11T21:15:45.997Z,7.90
2023-03-11T21:20:51.012Z,7.71
2023-03-11T21:25:58.911Z,8.04
2023-03-11T21:31:03.620Z,7.80
2023-03-11T21:36:10.152Z,7.85
2023-03-11T21:41:15.876Z,7.66
2023-03-11T21:46:22.672Z,7.57
2023-03-11T21:51:28.181Z,7.72
2023-03-11T21:56:31.817Z,7.69
2023-03-11T22:01:35.412Z,7.50
2023-03-11T22:06:40.542Z,7.32
2023-03-11T22:11:43.927Z,7.14
2023-03-11T22:16:47.341Z,7.32
2023-03-11T22:21:52.393Z,7.55
2023-03-11T22:26:55.884Z,7.38
2023-03-11T22:31:59.476Z,7.81
2023-03-11T22:37:04.352Z,7.86
2023-03-11T22:42:08.137Z,7.93
2023-03-11T22:47:11.501Z,7.82
2023-03-11T22:52:16.928Z,7.74
2023-03-11T22:57:20.388Z,7.91
2023-03-11T23:02:23.831Z,8.01
2023-03-11T23:07:28.668Z,7.54
2023-03-11T23:12:32.140Z,7.42
2023-03-11T23:17:35.886Z,7.33
2023-03-11T23:22:41.989Z,7.18
2023-03-11T23:27:46.603Z,7.06
2023-03-11T23:32:50.087Z,6.96
2023-03-11T23:37:54.826Z,6.85
2023-03-11T23:42:58.200Z,6.83
2023-03-11T23:48:01.573Z,6.77
2023-03-11T23:53:06.562Z,6.72
2023-03-11T23:58:10.029Z,6.74
